sensor_id;sensor_type;location;lat;lon;timestamp;temperature;humidity
7447;DHT22;3765;47.962;7.952;2023-02-28T00:01:27;1.10;51.90
7447;DHT22;3765;47.962;7.952;2023-02-28T00:03:55;1.10;51.70
7447;DHT22;3765;47.962;7.952;2023-02-28T00:06:24;1.00;51.90
7447;DHT22;3765;47.962;7.952;2023-02-28T00:08:52;1.10;51.90
7447;DHT22;3765;47.962;7.952;2023-02-28T00:11:22;1.10;51.90
7447;DHT22;3765;47.962;7.952;2023-02-28T00:13:50;1.10;52.00
7447;DHT22;3765;47.962;7.952;2023-02-28T00:16:20;1.10;52.10
7447;DHT22;3765;47.962;7.952;2023-02-28T00:18:49;1.00;52.10
7447;DHT22;3765;47.962;7.952;2023-02-28T00:21:18;0.90;52.10
7447;DHT22;3765;47.962;7.952;2023-02-28T00:23:46;0.80;52.40
7447;DHT22;3765;47.962;7.952;2023-02-28T00:26:15;1.00;52.40
7447;DHT22;3765;47.962;7.952;2023-02-28T00:28:47;1.00;52.40
7447;DHT22;3765;47.962;7.952;2023-02-28T00:31:15;1.10;52.40
7447;DHT22;3765;47.962;7.952;2023-02-28T00:33:43;1.30;52.30
7447;DHT22;3765;47.962;7.952;2023-02-28T00:36:11;1.10;52.20
7447;DHT22;3765;47.962;7.952;2023-02-28T00:38:40;1.10;52.30
7447;DHT22;3765;47.962;7.952;2023-02-28T00:41:09;0.90;52.50
7447;DHT22;3765;47.962;7.952;2023-02-28T00:43:38;0.90;52.60
7447;DHT22;3765;47.962;7.952;2023-02-28T00:46:08;1.10;52.70
7447;DHT22;3765;47.962;7.952;2023-02-28T00:48:36;1.20;52.60
7447;DHT22;3765;47.962;7.952;2023-02-28T00:51:05;1.20;52.60
7447;DHT22;3765;47.962;7.952;2023-02-28T00:53:33;1.20;52.50
7447;DHT22;3765;47.962;7.952;2023-02-28T00:56:02;1.00;52.80
7447;DHT22;3765;47.962;7.952;2023-02-28T00:58:31;1.10;53.00
7447;DHT22;3765;47.962;7.952;2023-02-28T01:01:00;1.00;53.00
7447;DHT22;3765;47.962;7.952;2023-02-28T01:03:29;1.20;52.90
7447;DHT22;3765;47.962;7.952;2023-02-28T01:05:58;1.10;53.00
7447;DHT22;3765;47.962;7.952;2023-02-28T01:08:26;1.10;53.10
7447;DHT22;3765;47.962;7.952;2023-02-28T01:10:54;1.20;53.10
7447;DHT22;3765;47.962;7.952;2023-02-28T01:13:23;1.20;53.10
7447;DHT22;3765;47.962;7.952;2023-02-28T01:15:54;1.30;53.10
7447;DHT22;3765;47.962;7.952;2023-02-28T01:18:22;1.30;53.10
7447;DHT22;3765;47.962;7.952;2023-02-28T01:20:53;1.20;53.20
7447;DHT22;3765;47.962;7.952;2023-02-28T01:23:21;1.30;53.10
7447;DHT22;3765;47.962;7.952;2023-02-28T01:25:51;1.30;53.10
7447;DHT22;3765;47.962;7.952;2023-02-28T01:28:19;1.30;53.10
7447;DHT22;3765;47.962;7.952;2023-02-28T01:30:48;1.30;53.10
7447;DHT22;3765;47.962;7.952;2023-02-28T01:33:17;1.30;53.10
7447;DHT22;3765;47.962;7.952;2023-02-28T01:35:45;1.30;53.30
7447;DHT22;3765;47.962;7.952;2023-02-28T01:38:18;1.40;53.20
7447;DHT22;3765;47.962;7.952;2023-02-28T01:40:50;1.40;53.10
7447;DHT22;3765;47.962;7.952;2023-02-28T01:43:26;1.40;53.30
7447;DHT22;3765;47.962;7.952;2023-02-28T01:46:03;1.40;53.10
7447;DHT22;3765;47.962;7.952;2023-02-28T01:48:36;1.50;53.30
7447;DHT22;3765;47.962;7.952;2023-02-28T01:51:12;1.60;53.20
7447;DHT22;3765;47.962;7.952;2023-02-28T01:54:01;1.60;53.40
7447;DHT22;3765;47.962;7.952;2023-02-28T01:56:35;1.60;53.50
7447;DHT22;3765;47.962;7.952;2023-02-28T01:59:04;1.60;53.30
7447;DHT22;3765;47.962;7.952;2023-02-28T02:01:34;1.60;53.50
7447;DHT22;3765;47.962;7.952;2023-02-28T02:04:05;1.70;53.30
7447;DHT22;3765;47.962;7.952;2023-02-28T02:06:39;1.40;53.30
7447;DHT22;3765;47.962;7.952;2023-02-28T02:09:14;1.40;53.50
7447;DHT22;3765;47.962;7.952;2023-02-28T02:11:49;1.40;53.50
7447;DHT22;3765;47.962;7.952;2023-02-28T02:14:48;1.50;53.60
7447;DHT22;3765;47.962;7.952;2023-02-28T02:17:30;1.60;53.50
7447;DHT22;3765;47.962;7.952;2023-02-28T02:20:24;1.60;53.40
7447;DHT22;3765;47.962;7.952;2023-02-28T02:29:51;1.40;53.70
7447;DHT22;3765;47.962;7.952;2023-02-28T02:36:14;1.40;53.60
7447;DHT22;3765;47.962;7.952;2023-02-28T02:38:49;1.40;53.70
7447;DHT22;3765;47.962;7.952;2023-02-28T02:41:27;1.60;53.70
7447;DHT22;3765;47.962;7.952;2023-02-28T02:44:04;1.60;53.70
7447;DHT22;3765;47.962;7.952;2023-02-28T02:46:37;1.60;53.70
7447;DHT22;3765;47.962;7.952;2023-02-28T02:49:15;1.50;53.70
7447;DHT22;3765;47.962;7.952;2023-02-28T02:52:05;1.50;53.80
7447;DHT22;3765;47.962;7.952;2023-02-28T02:54:41;1.50;53.80
7447;DHT22;3765;47.962;7.952;2023-02-28T02:57:13;1.50;53.90
7447;DHT22;3765;47.962;7.952;2023-02-28T02:59:45;1.60;54.00
7447;DHT22;3765;47.962;7.952;2023-02-28T03:02:18;1.40;53.90
7447;DHT22;3765;47.962;7.952;2023-02-28T03:04:53;1.30;54.20
7447;DHT22;3765;47.962;7.952;2023-02-28T03:07:33;1.40;54.30
7447;DHT22;3765;47.962;7.952;2023-02-28T03:13:05;1.40;54.30
7447;DHT22;3765;47.962;7.952;2023-02-28T03:15:47;1.50;54.60
7447;DHT22;3765;47.962;7.952;2023-02-28T03:18:36;1.40;54.70
7447;DHT22;3765;47.962;7.952;2023-02-28T03:21:16;1.30;54.70
7447;DHT22;3765;47.962;7.952;2023-02-28T03:24:02;1.30;54.80
7447;DHT22;3765;47.962;7.952;2023-02-28T03:26:36;1.40;55.00
7447;DHT22;3765;47.962;7.952;2023-02-28T03:29:13;1.40;55.10
7447;DHT22;3765;47.962;7.952;2023-02-28T03:31:51;1.40;55.30
7447;DHT22;3765;47.962;7.952;2023-02-28T03:34:30;1.30;55.40
7447;DHT22;3765;47.962;7.952;2023-02-28T03:37:11;1.30;55.80
7447;DHT22;3765;47.962;7.952;2023-02-28T03:39:49;1.30;56.20
7447;DHT22;3765;47.962;7.952;2023-02-28T03:42:25;1.30;56.50
7447;DHT22;3765;47.962;7.952;2023-02-28T03:44:57;1.30;56.70
7447;DHT22;3765;47.962;7.952;2023-02-28T03:47:38;1.10;57.20
7447;DHT22;3765;47.962;7.952;2023-02-28T03:50:14;1.00;57.50
7447;DHT22;3765;47.962;7.952;2023-02-28T03:52:49;0.90;58.00
7447;DHT22;3765;47.962;7.952;2023-02-28T03:55:24;0.80;58.40
7447;DHT22;3765;47.962;7.952;2023-02-28T03:57:58;0.80;58.80
7447;DHT22;3765;47.962;7.952;2023-02-28T04:00:35;0.80;59.10
7447;DHT22;3765;47.962;7.952;2023-02-28T04:03:08;0.90;59.60
7447;DHT22;3765;47.962;7.952;2023-02-28T04:05:51;0.90;59.90
7447;DHT22;3765;47.962;7.952;2023-02-28T04:08:20;0.90;59.90
7447;DHT22;3765;47.962;7.952;2023-02-28T04:11:00;0.80;60.10
7447;DHT22;3765;47.962;7.952;2023-02-28T04:13:35;0.80;60.50
7447;DHT22;3765;47.962;7.952;2023-02-28T04:16:08;0.80;60.70
7447;DHT22;3765;47.962;7.952;2023-02-28T04:18:50;0.80;61.00
7447;DHT22;3765;47.962;7.952;2023-02-28T04:21:22;0.80;61.20
7447;DHT22;3765;47.962;7.952;2023-02-28T04:23:54;0.80;61.30
7447;DHT22;3765;47.962;7.952;2023-02-28T04:26:42;0.70;61.50
7447;DHT22;3765;47.962;7.952;2023-02-28T04:29:18;0.60;61.90
7447;DHT22;3765;47.962;7.952;2023-02-28T04:31:47;0.40;62.10
7447;DHT22;3765;47.962;7.952;2023-02-28T04:34:21;0.50;62.40
7447;DHT22;3765;47.962;7.952;2023-02-28T04:36:54;0.60;62.40
7447;DHT22;3765;47.962;7.952;2023-02-28T04:39:39;0.50;62.40
7447;DHT22;3765;47.962;7.952;2023-02-28T04:42:28;0.40;62.70
7447;DHT22;3765;47.962;7.952;2023-02-28T04:45:08;0.50;62.90
7447;DHT22;3765;47.962;7.952;2023-02-28T04:47:37;0.60;63.20
7447;DHT22;3765;47.962;7.952;2023-02-28T04:50:08;0.60;62.90
7447;DHT22;3765;47.962;7.952;2023-02-28T04:52:36;0.40;62.90
7447;DHT22;3765;47.962;7.952;2023-02-28T04:55:05;0.40;63.00
7447;DHT22;3765;47.962;7.952;2023-02-28T04:57:42;0.60;63.20
7447;DHT22;3765;47.962;7.952;2023-02-28T05:00:11;0.70;63.10
7447;DHT22;3765;47.962;7.952;2023-02-28T05:02:55;0.80;63.30
7447;DHT22;3765;47.962;7.952;2023-02-28T05:05:25;0.80;63.20
7447;DHT22;3765;47.962;7.952;2023-02-28T05:07:58;0.80;63.30
7447;DHT22;3765;47.962;7.952;2023-02-28T05:10:27;0.80;63.30
7447;DHT22;3765;47.962;7.952;2023-02-28T05:12:59;0.90;63.40
7447;DHT22;3765;47.962;7.952;2023-02-28T05:15:28;0.90;63.40
7447;DHT22;3765;47.962;7.952;2023-02-28T05:18:01;0.90;63.40
7447;DHT22;3765;47.962;7.952;2023-02-28T05:20:32;0.90;63.30
7447;DHT22;3765;47.962;7.952;2023-02-28T05:23:16;0.80;63.30
7447;DHT22;3765;47.962;7.952;2023-02-28T05:25:47;0.80;63.60
7447;DHT22;3765;47.962;7.952;2023-02-28T05:28:20;0.80;63.50
7447;DHT22;3765;47.962;7.952;2023-02-28T05:30:52;0.80;63.80
7447;DHT22;3765;47.962;7.952;2023-02-28T05:33:20;0.80;64.10
7447;DHT22;3765;47.962;7.952;2023-02-28T05:35:52;0.90;64.20
7447;DHT22;3765;47.962;7.952;2023-02-28T05:38:23;0.80;64.40
7447;DHT22;3765;47.962;7.952;2023-02-28T05:40:53;0.80;64.60
7447;DHT22;3765;47.962;7.952;2023-02-28T05:43:38;0.60;64.60
7447;DHT22;3765;47.962;7.952;2023-02-28T05:46:11;0.60;65.00
7447;DHT22;3765;47.962;7.952;2023-02-28T05:48:41;0.70;65.20
7447;DHT22;3765;47.962;7.952;2023-02-28T05:51:12;0.60;65.40
7447;DHT22;3765;47.962;7.952;2023-02-28T05:53:43;0.60;65.50
7447;DHT22;3765;47.962;7.952;2023-02-28T05:56:15;0.60;65.70
7447;DHT22;3765;47.962;7.952;2023-02-28T05:58:48;0.60;65.70
7447;DHT22;3765;47.962;7.952;2023-02-28T06:01:23;0.50;65.60
7447;DHT22;3765;47.962;7.952;2023-02-28T06:04:02;0.60;65.80
7447;DHT22;3765;47.962;7.952;2023-02-28T06:06:45;0.50;65.90
7447;DHT22;3765;47.962;7.952;2023-02-28T06:09:14;0.50;66.10
7447;DHT22;3765;47.962;7.952;2023-02-28T06:11:51;0.60;66.30
7447;DHT22;3765;47.962;7.952;2023-02-28T06:14:24;0.60;66.20
7447;DHT22;3765;47.962;7.952;2023-02-28T06:16:58;0.60;66.30
7447;DHT22;3765;47.962;7.952;2023-02-28T06:19:27;0.60;66.20
7447;DHT22;3765;47.962;7.952;2023-02-28T06:21:58;0.60;66.20
7447;DHT22;3765;47.962;7.952;2023-02-28T06:24:27;0.60;66.40
7447;DHT22;3765;47.962;7.952;2023-02-28T06:26:59;0.60;66.40
7447;DHT22;3765;47.962;7.952;2023-02-28T06:29:44;0.70;66.50
7447;DHT22;3765;47.962;7.952;2023-02-28T06:32:14;0.80;66.40
7447;DHT22;3765;47.962;7.952;2023-02-28T06:34:46;0.80;66.40
7447;DHT22;3765;47.962;7.952;2023-02-28T06:37:18;0.70;66.40
7447;DHT22;3765;47.962;7.952;2023-02-28T06:39:57;0.70;66.30
7447;DHT22;3765;47.962;7.952;2023-02-28T06:42:25;0.70;66.50
7447;DHT22;3765;47.962;7.952;2023-02-28T06:44:58;0.80;66.50
7447;DHT22;3765;47.962;7.952;2023-02-28T06:47:31;0.80;66.30
7447;DHT22;3765;47.962;7.952;2023-02-28T06:50:00;0.90;66.40
7447;DHT22;3765;47.962;7.952;2023-02-28T06:52:30;0.90;66.30
7447;DHT22;3765;47.962;7.952;2023-02-28T06:55:03;0.90;66.10
7447;DHT22;3765;47.962;7.952;2023-02-28T06:57:35;0.80;65.90
7447;DHT22;3765;47.962;7.952;2023-02-28T07:00:11;0.80;65.90
7447;DHT22;3765;47.962;7.952;2023-02-28T07:02:44;0.80;66.00
7447;DHT22;3765;47.962;7.952;2023-02-28T07:05:15;0.70;66.00
7447;DHT22;3765;47.962;7.952;2023-02-28T07:07:45;0.70;66.20
7447;DHT22;3765;47.962;7.952;2023-02-28T07:10:17;0.80;66.20
7447;DHT22;3765;47.962;7.952;2023-02-28T07:12:48;0.90;66.20
7447;DHT22;3765;47.962;7.952;2023-02-28T07:15:21;0.90;66.10
7447;DHT22;3765;47.962;7.952;2023-02-28T07:17:58;0.90;65.90
7447;DHT22;3765;47.962;7.952;2023-02-28T07:20:29;0.90;65.80
7447;DHT22;3765;47.962;7.952;2023-02-28T07:22:58;0.90;65.70
7447;DHT22;3765;47.962;7.952;2023-02-28T07:25:29;1.00;65.70
7447;DHT22;3765;47.962;7.952;2023-02-28T07:27:57;1.10;65.50
7447;DHT22;3765;47.962;7.952;2023-02-28T07:30:46;1.10;65.30
7447;DHT22;3765;47.962;7.952;2023-02-28T07:33:16;1.10;65.40
7447;DHT22;3765;47.962;7.952;2023-02-28T07:35:45;1.20;65.50
7447;DHT22;3765;47.962;7.952;2023-02-28T07:38:15;1.10;65.20
7447;DHT22;3765;47.962;7.952;2023-02-28T07:40:47;1.20;65.20
7447;DHT22;3765;47.962;7.952;2023-02-28T07:43:18;1.30;65.20
7447;DHT22;3765;47.962;7.952;2023-02-28T07:45:51;1.20;64.80
7447;DHT22;3765;47.962;7.952;2023-02-28T07:48:21;1.30;65.00
7447;DHT22;3765;47.962;7.952;2023-02-28T07:50:56;1.40;64.70
7447;DHT22;3765;47.962;7.952;2023-02-28T07:53:31;1.40;64.60
7447;DHT22;3765;47.962;7.952;2023-02-28T07:56:01;1.50;64.50
7447;DHT22;3765;47.962;7.952;2023-02-28T07:58:34;1.40;64.60
7447;DHT22;3765;47.962;7.952;2023-02-28T08:01:10;1.50;64.40
7447;DHT22;3765;47.962;7.952;2023-02-28T08:03:40;1.50;64.30
7447;DHT22;3765;47.962;7.952;2023-02-28T08:06:16;1.50;63.70
7447;DHT22;3765;47.962;7.952;2023-02-28T08:08:48;1.40;63.20
7447;DHT22;3765;47.962;7.952;2023-02-28T08:11:19;1.60;63.60
7447;DHT22;3765;47.962;7.952;2023-02-28T08:13:49;1.70;63.30
7447;DHT22;3765;47.962;7.952;2023-02-28T08:16:23;1.70;63.00
7447;DHT22;3765;47.962;7.952;2023-02-28T08:18:55;1.80;63.10
7447;DHT22;3765;47.962;7.952;2023-02-28T08:21:24;1.80;63.00
7447;DHT22;3765;47.962;7.952;2023-02-28T08:23:55;1.80;62.50
7447;DHT22;3765;47.962;7.952;2023-02-28T08:26:27;1.80;62.70
7447;DHT22;3765;47.962;7.952;2023-02-28T08:28:55;1.80;62.60
7447;DHT22;3765;47.962;7.952;2023-02-28T08:31:29;1.80;62.50
7447;DHT22;3765;47.962;7.952;2023-02-28T08:33:57;1.80;62.20
7447;DHT22;3765;47.962;7.952;2023-02-28T08:36:27;1.70;62.20
7447;DHT22;3765;47.962;7.952;2023-02-28T08:39:12;1.80;62.50
7447;DHT22;3765;47.962;7.952;2023-02-28T08:41:41;1.90;62.40
7447;DHT22;3765;47.962;7.952;2023-02-28T08:44:33;2.00;62.30
7447;DHT22;3765;47.962;7.952;2023-02-28T08:47:17;2.10;62.20
7447;DHT22;3765;47.962;7.952;2023-02-28T08:49:47;1.90;61.70
7447;DHT22;3765;47.962;7.952;2023-02-28T08:52:15;2.00;61.90
7447;DHT22;3765;47.962;7.952;2023-02-28T08:54:45;2.10;61.80
7447;DHT22;3765;47.962;7.952;2023-02-28T08:57:16;2.10;61.60
7447;DHT22;3765;47.962;7.952;2023-02-28T08:59:46;2.10;61.60
7447;DHT22;3765;47.962;7.952;2023-02-28T09:02:17;2.30;61.70
7447;DHT22;3765;47.962;7.952;2023-02-28T09:04:47;2.10;61.40
7447;DHT22;3765;47.962;7.952;2023-02-28T09:07:21;2.10;61.20
7447;DHT22;3765;47.962;7.952;2023-02-28T09:10:03;2.00;61.10
7447;DHT22;3765;47.962;7.952;2023-02-28T09:12:36;2.00;61.00
7447;DHT22;3765;47.962;7.952;2023-02-28T09:15:08;2.20;61.00
7447;DHT22;3765;47.962;7.952;2023-02-28T09:17:38;2.30;61.00
7447;DHT22;3765;47.962;7.952;2023-02-28T09:20:12;2.10;60.50
7447;DHT22;3765;47.962;7.952;2023-02-28T09:22:53;2.00;60.80
7447;DHT22;3765;47.962;7.952;2023-02-28T09:25:26;1.90;60.90
7447;DHT22;3765;47.962;7.952;2023-02-28T09:27:54;1.90;60.60
7447;DHT22;3765;47.962;7.952;2023-02-28T09:30:23;1.90;60.70
7447;DHT22;3765;47.962;7.952;2023-02-28T09:32:53;2.00;60.80
7447;DHT22;3765;47.962;7.952;2023-02-28T09:35:21;2.10;60.60
7447;DHT22;3765;47.962;7.952;2023-02-28T09:37:51;2.20;60.60
7447;DHT22;3765;47.962;7.952;2023-02-28T09:40:20;2.30;60.20
7447;DHT22;3765;47.962;7.952;2023-02-28T09:42:52;2.20;60.20
7447;DHT22;3765;47.962;7.952;2023-02-28T09:45:27;2.20;60.30
7447;DHT22;3765;47.962;7.952;2023-02-28T09:48:01;2.30;60.30
7447;DHT22;3765;47.962;7.952;2023-02-28T09:50:33;2.40;60.10
7447;DHT22;3765;47.962;7.952;2023-02-28T09:53:06;2.60;59.90
7447;DHT22;3765;47.962;7.952;2023-02-28T09:55:41;2.70;60.00
7447;DHT22;3765;47.962;7.952;2023-02-28T09:58:18;2.90;59.90
7447;DHT22;3765;47.962;7.952;2023-02-28T10:00:56;2.90;59.50
7447;DHT22;3765;47.962;7.952;2023-02-28T10:03:30;2.90;59.30
7447;DHT22;3765;47.962;7.952;2023-02-28T10:06:08;2.70;59.30
7447;DHT22;3765;47.962;7.952;2023-02-28T10:08:40;2.80;59.20
7447;DHT22;3765;47.962;7.952;2023-02-28T10:11:14;2.80;58.90
7447;DHT22;3765;47.962;7.952;2023-02-28T10:13:51;2.80;59.00
7447;DHT22;3765;47.962;7.952;2023-02-28T10:16:26;2.80;59.00
7447;DHT22;3765;47.962;7.952;2023-02-28T10:19:03;3.20;58.90
7447;DHT22;3765;47.962;7.952;2023-02-28T10:21:36;3.10;58.70
7447;DHT22;3765;47.962;7.952;2023-02-28T10:24:16;3.00;58.50
7447;DHT22;3765;47.962;7.952;2023-02-28T10:26:47;3.00;58.60
7447;DHT22;3765;47.962;7.952;2023-02-28T10:29:16;3.00;58.10
7447;DHT22;3765;47.962;7.952;2023-02-28T10:31:44;2.90;58.20
7447;DHT22;3765;47.962;7.952;2023-02-28T10:34:14;3.00;58.20
7447;DHT22;3765;47.962;7.952;2023-02-28T10:36:42;2.90;58.10
7447;DHT22;3765;47.962;7.952;2023-02-28T10:39:34;2.90;58.00
7447;DHT22;3765;47.962;7.952;2023-02-28T10:42:02;2.80;57.80
7447;DHT22;3765;47.962;7.952;2023-02-28T10:44:30;2.90;58.00
7447;DHT22;3765;47.962;7.952;2023-02-28T10:46:59;3.10;58.00
7447;DHT22;3765;47.962;7.952;2023-02-28T10:49:29;3.20;57.60
7447;DHT22;3765;47.962;7.952;2023-02-28T10:51:59;3.30;57.80
7447;DHT22;3765;47.962;7.952;2023-02-28T10:54:31;3.30;57.50
7447;DHT22;3765;47.962;7.952;2023-02-28T10:57:23;3.20;57.40
7447;DHT22;3765;47.962;7.952;2023-02-28T10:59:53;3.10;57.50
7447;DHT22;3765;47.962;7.952;2023-02-28T11:02:35;3.10;57.40
7447;DHT22;3765;47.962;7.952;2023-02-28T11:05:28;3.00;57.10
7447;DHT22;3765;47.962;7.952;2023-02-28T11:08:04;3.20;57.60
7447;DHT22;3765;47.962;7.952;2023-02-28T11:10:33;3.30;57.20
7447;DHT22;3765;47.962;7.952;2023-02-28T11:13:02;3.10;57.40
7447;DHT22;3765;47.962;7.952;2023-02-28T11:15:33;3.30;57.50
7447;DHT22;3765;47.962;7.952;2023-02-28T11:18:21;3.40;57.20
7447;DHT22;3765;47.962;7.952;2023-02-28T11:20:55;3.20;57.10
7447;DHT22;3765;47.962;7.952;2023-02-28T11:23:25;3.30;57.20
7447;DHT22;3765;47.962;7.952;2023-02-28T11:25:58;3.30;57.20
7447;DHT22;3765;47.962;7.952;2023-02-28T11:28:29;3.20;57.30
7447;DHT22;3765;47.962;7.952;2023-02-28T11:31:04;3.30;57.20
7447;DHT22;3765;47.962;7.952;2023-02-28T11:33:40;3.30;57.20
7447;DHT22;3765;47.962;7.952;2023-02-28T11:36:13;3.40;57.00
7447;DHT22;3765;47.962;7.952;2023-02-28T11:38:42;3.60;57.00
7447;DHT22;3765;47.962;7.952;2023-02-28T11:44:18;3.80;56.50
7447;DHT22;3765;47.962;7.952;2023-02-28T11:46:52;4.10;56.60
7447;DHT22;3765;47.962;7.952;2023-02-28T11:49:33;4.20;56.40
7447;DHT22;3765;47.962;7.952;2023-02-28T11:52:15;4.00;56.20
7447;DHT22;3765;47.962;7.952;2023-02-28T11:55:01;4.00;56.30
7447;DHT22;3765;47.962;7.952;2023-02-28T12:04:11;4.00;56.20
7447;DHT22;3765;47.962;7.952;2023-02-28T12:06:51;4.20;56.10
7447;DHT22;3765;47.962;7.952;2023-02-28T12:09:40;4.10;55.60
7447;DHT22;3765;47.962;7.952;2023-02-28T12:12:21;4.10;55.80
7447;DHT22;3765;47.962;7.952;2023-02-28T12:15:15;4.30;55.60
7447;DHT22;3765;47.962;7.952;2023-02-28T12:17:55;4.50;55.60
7447;DHT22;3765;47.962;7.952;2023-02-28T12:20:35;4.60;55.20
7447;DHT22;3765;47.962;7.952;2023-02-28T12:23:27;4.50;55.20
7447;DHT22;3765;47.962;7.952;2023-02-28T12:26:07;4.40;55.20
7447;DHT22;3765;47.962;7.952;2023-02-28T12:28:43;4.50;55.40
7447;DHT22;3765;47.962;7.952;2023-02-28T12:31:18;4.60;54.90
7447;DHT22;3765;47.962;7.952;2023-02-28T12:33:52;4.60;55.10
7447;DHT22;3765;47.962;7.952;2023-02-28T12:36:21;4.50;54.80
7447;DHT22;3765;47.962;7.952;2023-02-28T12:38:53;4.50;54.80
7447;DHT22;3765;47.962;7.952;2023-02-28T12:41:27;4.40;54.70
7447;DHT22;3765;47.962;7.952;2023-02-28T12:44:02;4.50;55.00
7447;DHT22;3765;47.962;7.952;2023-02-28T12:46:35;4.60;54.70
7447;DHT22;3765;47.962;7.952;2023-02-28T12:49:07;4.50;54.90
7447;DHT22;3765;47.962;7.952;2023-02-28T12:51:36;4.80;54.40
7447;DHT22;3765;47.962;7.952;2023-02-28T12:54:12;4.80;54.60
7447;DHT22;3765;47.962;7.952;2023-02-28T12:56:49;4.80;54.50
7447;DHT22;3765;47.962;7.952;2023-02-28T12:59:26;4.80;54.30
7447;DHT22;3765;47.962;7.952;2023-02-28T13:02:18;4.60;54.20
7447;DHT22;3765;47.962;7.952;2023-02-28T13:08:08;4.50;54.60
7447;DHT22;3765;47.962;7.952;2023-02-28T13:10:42;4.40;54.50
7447;DHT22;3765;47.962;7.952;2023-02-28T13:13:18;4.40;54.70
7447;DHT22;3765;47.962;7.952;2023-02-28T13:16:02;4.50;54.60
7447;DHT22;3765;47.962;7.952;2023-02-28T13:18:34;4.60;54.50
7447;DHT22;3765;47.962;7.952;2023-02-28T13:21:05;4.90;54.40
7447;DHT22;3765;47.962;7.952;2023-02-28T13:23:40;4.80;54.00
7447;DHT22;3765;47.962;7.952;2023-02-28T13:26:09;4.90;54.00
7447;DHT22;3765;47.962;7.952;2023-02-28T13:29:27;5.10;54.00
7447;DHT22;3765;47.962;7.952;2023-02-28T13:32:31;5.40;53.60
7447;DHT22;3765;47.962;7.952;2023-02-28T13:38:37;5.50;53.20
7447;DHT22;3765;47.962;7.952;2023-02-28T13:41:40;5.60;53.30
7447;DHT22;3765;47.962;7.952;2023-02-28T13:44:10;6.00;53.00
7447;DHT22;3765;47.962;7.952;2023-02-28T13:49:41;6.80;52.00
7447;DHT22;3765;47.962;7.952;2023-02-28T13:52:15;6.80;51.40
7447;DHT22;3765;47.962;7.952;2023-02-28T13:54:57;6.70;51.40
7447;DHT22;3765;47.962;7.952;2023-02-28T13:57:37;7.20;51.40
7447;DHT22;3765;47.962;7.952;2023-02-28T14:00:21;7.00;51.60
7447;DHT22;3765;47.962;7.952;2023-02-28T14:03:26;7.20;50.90
7447;DHT22;3765;47.962;7.952;2023-02-28T14:06:20;7.20;51.10
7447;DHT22;3765;47.962;7.952;2023-02-28T14:09:18;7.40;50.60
7447;DHT22;3765;47.962;7.952;2023-02-28T14:11:53;7.30;50.00
7447;DHT22;3765;47.962;7.952;2023-02-28T14:14:55;7.40;50.30
7447;DHT22;3765;47.962;7.952;2023-02-28T14:17:25;7.40;50.30
7447;DHT22;3765;47.962;7.952;2023-02-28T14:19:54;7.10;49.70
7447;DHT22;3765;47.962;7.952;2023-02-28T14:22:43;7.10;50.00
7447;DHT22;3765;47.962;7.952;2023-02-28T14:25:23;7.50;49.70
7447;DHT22;3765;47.962;7.952;2023-02-28T14:28:02;7.00;49.10
7447;DHT22;3765;47.962;7.952;2023-02-28T14:31:00;6.90;50.20
7447;DHT22;3765;47.962;7.952;2023-02-28T14:33:57;7.00;49.60
7447;DHT22;3765;47.962;7.952;2023-02-28T14:36:30;6.70;49.70
7447;DHT22;3765;47.962;7.952;2023-02-28T14:39:05;6.60;50.00
7447;DHT22;3765;47.962;7.952;2023-02-28T14:41:35;6.30;49.90
7447;DHT22;3765;47.962;7.952;2023-02-28T14:44:15;6.10;50.40
7447;DHT22;3765;47.962;7.952;2023-02-28T14:46:46;5.90;50.50
7447;DHT22;3765;47.962;7.952;2023-02-28T14:49:18;5.90;50.40
7447;DHT22;3765;47.962;7.952;2023-02-28T14:51:49;5.60;50.70
7447;DHT22;3765;47.962;7.952;2023-02-28T14:54:21;5.80;51.00
7447;DHT22;3765;47.962;7.952;2023-02-28T14:56:51;5.70;50.40
7447;DHT22;3765;47.962;7.952;2023-02-28T14:59:27;5.20;51.00
7447;DHT22;3765;47.962;7.952;2023-02-28T15:02:17;4.90;51.40
7447;DHT22;3765;47.962;7.952;2023-02-28T15:04:53;4.90;51.80
7447;DHT22;3765;47.962;7.952;2023-02-28T15:07:22;4.90;51.80
7447;DHT22;3765;47.962;7.952;2023-02-28T15:10:12;4.90;52.00
7447;DHT22;3765;47.962;7.952;2023-02-28T15:12:41;5.30;52.00
7447;DHT22;3765;47.962;7.952;2023-02-28T15:15:16;5.30;51.90
7447;DHT22;3765;47.962;7.952;2023-02-28T15:17:48;5.10;51.80
7447;DHT22;3765;47.962;7.952;2023-02-28T15:20:18;5.20;51.90
7447;DHT22;3765;47.962;7.952;2023-02-28T15:22:48;5.10;52.00
7447;DHT22;3765;47.962;7.952;2023-02-28T15:25:21;5.30;52.20
7447;DHT22;3765;47.962;7.952;2023-02-28T15:27:51;5.30;52.00
7447;DHT22;3765;47.962;7.952;2023-02-28T15:30:25;5.30;52.30
7447;DHT22;3765;47.962;7.952;2023-02-28T15:33:07;5.30;51.80
7447;DHT22;3765;47.962;7.952;2023-02-28T15:35:38;5.30;51.90
7447;DHT22;3765;47.962;7.952;2023-02-28T15:38:15;5.30;51.80
7447;DHT22;3765;47.962;7.952;2023-02-28T15:40:49;5.40;51.90
7447;DHT22;3765;47.962;7.952;2023-02-28T15:43:25;5.70;51.80
7447;DHT22;3765;47.962;7.952;2023-02-28T15:45:57;5.60;51.80
7447;DHT22;3765;47.962;7.952;2023-02-28T15:48:28;5.40;51.60
7447;DHT22;3765;47.962;7.952;2023-02-28T15:51:02;5.30;51.60
7447;DHT22;3765;47.962;7.952;2023-02-28T15:53:36;5.20;51.80
7447;DHT22;3765;47.962;7.952;2023-02-28T15:56:22;5.00;51.80
7447;DHT22;3765;47.962;7.952;2023-02-28T15:58:52;4.90;52.10
7447;DHT22;3765;47.962;7.952;2023-02-28T16:01:25;4.90;52.00
7447;DHT22;3765;47.962;7.952;2023-02-28T16:03:57;4.80;52.00
7447;DHT22;3765;47.962;7.952;2023-02-28T16:06:40;4.80;52.30
7447;DHT22;3765;47.962;7.952;2023-02-28T16:09:11;4.90;52.30
7447;DHT22;3765;47.962;7.952;2023-02-28T16:11:44;4.80;52.10
7447;DHT22;3765;47.962;7.952;2023-02-28T16:14:17;4.80;52.30
7447;DHT22;3765;47.962;7.952;2023-02-28T16:16:48;4.80;52.20
7447;DHT22;3765;47.962;7.952;2023-02-28T16:19:16;4.70;52.30
7447;DHT22;3765;47.962;7.952;2023-02-28T16:21:45;4.80;52.40
7447;DHT22;3765;47.962;7.952;2023-02-28T16:24:14;4.80;52.20
7447;DHT22;3765;47.962;7.952;2023-02-28T16:26:46;4.90;52.30
7447;DHT22;3765;47.962;7.952;2023-02-28T16:29:19;5.00;52.20
7447;DHT22;3765;47.962;7.952;2023-02-28T16:31:50;4.80;52.30
7447;DHT22;3765;47.962;7.952;2023-02-28T16:34:18;4.70;52.30
7447;DHT22;3765;47.962;7.952;2023-02-28T16:36:48;4.80;52.50
7447;DHT22;3765;47.962;7.952;2023-02-28T16:39:17;4.70;52.40
7447;DHT22;3765;47.962;7.952;2023-02-28T16:41:50;4.70;52.60
7447;DHT22;3765;47.962;7.952;2023-02-28T16:44:26;4.70;52.70
7447;DHT22;3765;47.962;7.952;2023-02-28T16:46:55;4.70;52.70
7447;DHT22;3765;47.962;7.952;2023-02-28T16:49:23;4.60;52.60
7447;DHT22;3765;47.962;7.952;2023-02-28T16:51:51;4.40;52.70
7447;DHT22;3765;47.962;7.952;2023-02-28T16:54:19;4.40;52.90
7447;DHT22;3765;47.962;7.952;2023-02-28T16:56:49;4.30;53.00
7447;DHT22;3765;47.962;7.952;2023-02-28T16:59:21;4.30;53.00
7447;DHT22;3765;47.962;7.952;2023-02-28T17:01:50;4.30;53.20
7447;DHT22;3765;47.962;7.952;2023-02-28T17:04:19;4.30;53.40
7447;DHT22;3765;47.962;7.952;2023-02-28T17:06:47;4.10;53.40
7447;DHT22;3765;47.962;7.952;2023-02-28T17:09:17;4.20;53.60
7447;DHT22;3765;47.962;7.952;2023-02-28T17:11:49;4.10;53.70
7447;DHT22;3765;47.962;7.952;2023-02-28T17:14:17;4.10;53.80
7447;DHT22;3765;47.962;7.952;2023-02-28T17:16:45;4.10;53.90
7447;DHT22;3765;47.962;7.952;2023-02-28T17:19:15;3.90;54.00
7447;DHT22;3765;47.962;7.952;2023-02-28T17:21:44;3.80;54.20
7447;DHT22;3765;47.962;7.952;2023-02-28T17:24:12;3.70;54.30
7447;DHT22;3765;47.962;7.952;2023-02-28T17:26:57;3.60;54.60
7447;DHT22;3765;47.962;7.952;2023-02-28T17:29:25;3.40;54.80
7447;DHT22;3765;47.962;7.952;2023-02-28T17:31:53;3.30;55.10
7447;DHT22;3765;47.962;7.952;2023-02-28T17:34:26;3.20;55.50
7447;DHT22;3765;47.962;7.952;2023-02-28T17:36:54;3.10;55.60